createdAt,value
2023-03-22T00:01:19.449Z,12.03
2023-03-22T00:03:47.821Z,12.04
2023-03-22T00:06:16.339Z,12.17
2023-03-22T00:08:44.492Z,12.17
2023-03-22T00:11:12.821Z,12.07
2023-03-22T00:13:42.935Z,12.02
2023-03-22T00:16:10.955Z,11.88
2023-03-22T00:18:37.985Z,11.86
2023-03-22T00:21:05.970Z,11.92
2023-03-22T00:23:32.913Z,11.96
2023-03-22T00:25:59.801Z,12.11
2023-03-22T00:28:26.759Z,12.15
2023-03-22T00:31:00.885Z,12.30
2023-03-22T00:33:29.663Z,12.40
2023-03-22T00:36:06.704Z,12.38
2023-03-22T00:38:44.957Z,12.46
2023-03-22T00:41:18.823Z,12.55
2023-03-22T00:43:47.663Z,12.63
2023-03-22T00:46:17.174Z,12.68
2023-03-22T00:48:44.112Z,12.68
2023-03-22T00:51:13.512Z,12.92
2023-03-22T00:53:43.009Z,13.01
2023-03-22T00:56:16.605Z,12.93
2023-03-22T00:58:43.841Z,13.00
2023-03-22T01:01:14.592Z,13.04
2023-03-22T01:03:43.656Z,13.09
2023-03-22T01:06:11.623Z,13.15
2023-03-22T01:08:39.425Z,13.12
2023-03-22T01:11:07.717Z,13.21
2023-03-22T01:13:37.769Z,13.19
2023-03-22T01:16:06.699Z,13.20
2023-03-22T01:18:34.031Z,13.20
2023-03-22T01:21:01.277Z,13.14
2023-03-22T01:23:28.585Z,13.24
2023-03-22T01:25:55.547Z,13.14
2023-03-22T01:28:22.820Z,13.16
2023-03-22T01:30:50.983Z,13.08
2023-03-22T01:33:18.072Z,13.00
2023-03-22T01:35:45.226Z,13.00
2023-03-22T01:38:12.526Z,12.91
2023-03-22T01:40:39.761Z,12.96
2023-03-22T01:43:15.663Z,12.99
2023-03-22T01:46:00.964Z,13.12
2023-03-22T01:48:42.094Z,13.21
2023-03-22T01:51:15.262Z,13.32
2023-03-22T01:53:55.358Z,13.39
2023-03-22T01:56:26.924Z,13.37
2023-03-22T01:58:55.158Z,13.39
2023-03-22T02:01:23.290Z,13.45
2023-03-22T02:04:15.492Z,13.49
2023-03-22T02:06:42.749Z,13.53
2023-03-22T02:09:12.890Z,13.50
2023-03-22T02:11:50.181Z,13.51
2023-03-22T02:14:58.918Z,13.48
2023-03-22T02:17:37.591Z,13.47
2023-03-22T02:20:28.181Z,13.43
2023-03-22T02:23:47.879Z,13.38
2023-03-22T02:26:59.452Z,13.18
2023-03-22T02:30:02.958Z,13.11
2023-03-22T02:32:45.549Z,13.05
2023-03-22T02:35:38.648Z,13.00
2023-03-22T02:38:19.989Z,13.06
2023-03-22T02:41:06.236Z,12.96
2023-03-22T02:44:23.053Z,12.91
2023-03-22T02:47:06.665Z,12.96
2023-03-22T02:49:49.366Z,12.93
2023-03-22T02:52:35.904Z,12.91
2023-03-22T02:55:40.283Z,12.92
2023-03-22T02:58:39.352Z,12.94
2023-03-22T03:01:10.494Z,12.99
2023-03-22T03:03:39.555Z,13.01
2023-03-22T03:06:15.134Z,13.00
2023-03-22T03:08:44.213Z,13.04
2023-03-22T03:11:11.045Z,12.97
2023-03-22T03:13:38.208Z,12.98
2023-03-22T03:16:07.854Z,12.98
2023-03-22T03:18:54.544Z,12.97
2023-03-22T03:21:30.308Z,12.99
2023-03-22T03:24:13.375Z,12.98
2023-03-22T03:27:06.733Z,12.95
2023-03-22T03:30:00.204Z,12.91
2023-03-22T03:32:35.512Z,12.88
2023-03-22T03:35:25.379Z,12.87
2023-03-22T03:37:57.659Z,12.90
2023-03-22T03:40:31.263Z,12.94
2023-03-22T03:43:02.898Z,12.95
2023-03-22T03:45:30.814Z,12.94
2023-03-22T03:48:01.388Z,12.83
2023-03-22T03:50:28.621Z,12.82
2023-03-22T03:52:56.339Z,12.77
2023-03-22T03:55:24.332Z,12.84
2023-03-22T03:57:51.232Z,12.82
2023-03-22T04:00:19.232Z,12.84
2023-03-22T04:02:46.122Z,12.83
2023-03-22T04:05:13.629Z,12.74
2023-03-22T04:07:41.192Z,12.71
2023-03-22T04:10:08.655Z,12.65
2023-03-22T04:12:35.880Z,12.57
2023-03-22T04:15:02.751Z,12.51
2023-03-22T04:17:29.592Z,12.41
2023-03-22T04:19:56.757Z,12.39
2023-03-22T04:22:25.043Z,12.28
2023-03-22T04:24:51.886Z,12.24
2023-03-22T04:27:20.868Z,12.30
2023-03-22T04:29:51.115Z,12.31
2023-03-22T04:32:19.192Z,12.32
2023-03-22T04:34:49.012Z,12.33
2023-03-22T04:37:16.647Z,12.31
2023-03-22T04:39:43.805Z,12.24
2023-03-22T04:42:11.219Z,12.18
2023-03-22T04:44:38.111Z,12.08
2023-03-22T04:47:04.967Z,12.05
2023-03-22T04:49:31.952Z,12.01
2023-03-22T04:51:59.163Z,11.89
2023-03-22T04:54:26.102Z,11.82
2023-03-22T04:56:52.961Z,11.76
2023-03-22T04:59:20.526Z,11.73
2023-03-22T05:01:48.820Z,11.59
2023-03-22T05:04:19.787Z,11.49
2023-03-22T05:06:47.021Z,11.41
2023-03-22T05:09:14.266Z,11.35
2023-03-22T05:11:41.661Z,11.31
2023-03-22T05:14:09.302Z,11.35
2023-03-22T05:16:36.463Z,11.35
2023-03-22T05:19:03.474Z,11.31
2023-03-22T05:21:36.752Z,11.39
2023-03-22T05:24:04.406Z,11.46
2023-03-22T05:26:31.404Z,11.43
2023-03-22T05:28:58.246Z,11.41
2023-03-22T05:31:25.214Z,11.45
2023-03-22T05:33:52.854Z,11.38
2023-03-22T05:36:22.975Z,11.39
2023-03-22T05:38:50.538Z,11.39
2023-03-22T05:41:17.513Z,11.30
2023-03-22T05:43:45.073Z,11.42
2023-03-22T05:46:12.756Z,11.43
2023-03-22T05:48:41.057Z,11.60
2023-03-22T05:51:10.135Z,11.71
2023-03-22T05:53:37.248Z,11.86
2023-03-22T05:56:04.440Z,11.91
2023-03-22T05:58:33.825Z,11.86
2023-03-22T06:01:13.098Z,12.01
2023-03-22T06:03:40.252Z,12.21
2023-03-22T06:06:13.612Z,12.38
2023-03-22T06:08:40.917Z,12.63
2023-03-22T06:11:08.673Z,12.73
2023-03-22T06:13:35.554Z,12.94
2023-03-22T06:16:04.925Z,13.23
2023-03-22T06:18:33.033Z,13.38
2023-03-22T06:21:00.748Z,13.43
2023-03-22T06:23:28.194Z,13.51
2023-03-22T06:25:55.419Z,13.60
2023-03-22T06:28:22.286Z,13.81
2023-03-22T06:30:49.141Z,14.05
2023-03-22T06:33:15.959Z,14.30
2023-03-22T06:35:42.927Z,14.59
2023-03-22T06:38:09.855Z,14.86
2023-03-22T06:40:36.688Z,15.11
2023-03-22T06:43:07.028Z,15.35
2023-03-22T06:45:34.380Z,15.57
2023-03-22T06:48:01.637Z,15.92
2023-03-22T06:50:29.474Z,16.18
2023-03-22T06:52:56.715Z,16.41
2023-03-22T06:55:24.242Z,16.63
2023-03-22T06:57:54.673Z,16.90
2023-03-22T07:00:21.805Z,17.03
2023-03-22T07:02:49.987Z,17.35
2023-03-22T07:05:18.640Z,17.62
2023-03-22T07:07:46.341Z,17.62
2023-03-22T07:10:13.484Z,17.17
2023-03-22T07:12:40.630Z,16.94
2023-03-22T07:15:08.351Z,17.31
2023-03-22T07:17:35.396Z,16.60
2023-03-22T07:20:03.847Z,16.17
2023-03-22T07:22:30.916Z,16.42
2023-03-22T07:25:00.598Z,15.74
2023-03-22T07:27:28.501Z,16.21
2023-03-22T07:29:55.322Z,16.88
2023-03-22T07:32:22.252Z,17.15
2023-03-22T07:34:49.176Z,17.51
2023-03-22T07:37:16.007Z,17.18
2023-03-22T07:39:42.862Z,17.65
2023-03-22T07:42:09.676Z,17.18
2023-03-22T07:44:36.669Z,16.71
2023-03-22T07:47:03.561Z,17.54
2023-03-22T07:49:31.599Z,17.00
2023-03-22T07:51:58.530Z,17.44
2023-03-22T07:54:33.301Z,16.78
2023-03-22T07:57:01.328Z,17.53
2023-03-22T07:59:28.748Z,17.52
2023-03-22T08:01:55.919Z,17.34
2023-03-22T08:04:23.346Z,17.53
2023-03-22T08:06:51.345Z,17.78
2023-03-22T08:09:18.364Z,17.69
2023-03-22T08:11:45.326Z,18.52
2023-03-22T08:14:12.165Z,17.83
2023-03-22T08:16:39.285Z,17.77
2023-03-22T08:19:06.671Z,18.02
2023-03-22T08:21:33.516Z,18.97
2023-03-22T08:24:00.396Z,18.81
2023-03-22T08:26:27.820Z,19.18
2023-03-22T08:28:54.810Z,19.29
2023-03-22T08:31:22.400Z,19.42
2023-03-22T08:33:49.461Z,20.58
2023-03-22T08:36:22.672Z,21.16
2023-03-22T08:38:50.377Z,21.62
2023-03-22T08:41:17.219Z,21.33
2023-03-22T08:43:44.250Z,20.31
2023-03-22T08:46:11.141Z,20.24
2023-03-22T08:48:38.480Z,21.28
2023-03-22T08:51:06.698Z,21.02
2023-03-22T08:53:33.610Z,20.50
2023-03-22T08:56:01.781Z,19.61
2023-03-22T08:58:28.616Z,19.58
2023-03-22T09:00:55.755Z,18.92
2023-03-22T09:03:24.846Z,19.45
2023-03-22T09:05:51.837Z,19.88
2023-03-22T09:08:19.909Z,19.67
2023-03-22T09:10:51.982Z,20.83
2023-03-22T09:13:19.826Z,20.48
2023-03-22T09:15:47.021Z,20.83
2023-03-22T09:18:15.252Z,21.35
2023-03-22T09:20:43.070Z,21.47
2023-03-22T09:23:10.279Z,21.34
2023-03-22T09:25:37.194Z,21.16
2023-03-22T09:28:04.849Z,20.24
2023-03-22T09:30:31.824Z,21.49
2023-03-22T09:32:58.644Z,21.60
2023-03-22T09:35:25.962Z,22.44
2023-03-22T09:37:54.413Z,22.86
2023-03-22T09:40:31.585Z,22.85
2023-03-22T09:43:06.643Z,22.09
2023-03-22T09:45:43.893Z,22.56
2023-03-22T09:48:19.438Z,22.56
2023-03-22T09:50:52.491Z,22.21
2023-03-22T09:53:22.149Z,22.81
2023-03-22T09:56:31.275Z,22.38
2023-03-22T09:59:06.848Z,22.24
2023-03-22T10:02:01.377Z,20.97
2023-03-22T10:05:04.113Z,21.54
2023-03-22T10:07:56.365Z,22.17
2023-03-22T10:10:24.832Z,22.60
2023-03-22T10:13:00.190Z,22.81
2023-03-22T10:15:40.035Z,22.24
2023-03-22T10:18:12.799Z,23.12
2023-03-22T10:21:09.744Z,23.51
2023-03-22T10:23:55.703Z,24.50
2023-03-22T10:26:31.969Z,24.69
2023-03-22T10:29:12.366Z,24.67
2023-03-22T10:31:42.977Z,24.94
2023-03-22T10:34:31.006Z,24.63
2023-03-22T10:37:01.183Z,23.55
2023-03-22T10:39:41.129Z,24.59
2023-03-22T10:42:15.951Z,22.23
2023-03-22T10:44:48.077Z,23.70
2023-03-22T10:47:44.900Z,24.59
2023-03-22T10:50:28.640Z,24.58
2023-03-22T10:53:18.520Z,24.10
2023-03-22T10:55:45.542Z,25.55
2023-03-22T10:58:21.603Z,26.23
2023-03-22T11:00:56.868Z,25.54
2023-03-22T11:03:52.951Z,24.83
2023-03-22T11:06:39.167Z,26.36
2023-03-22T11:09:22.418Z,26.61
2023-03-22T11:11:56.209Z,26.00
2023-03-22T11:14:42.360Z,26.62
2023-03-22T11:17:14.492Z,27.17
2023-03-22T11:19:53.177Z,27.58
2023-03-22T11:22:36.487Z,27.27
2023-03-22T11:25:07.562Z,25.86
2023-03-22T11:27:34.576Z,24.52
2023-03-22T11:30:24.714Z,24.11
2023-03-22T11:33:20.953Z,24.53
2023-03-22T11:35:58.152Z,23.65
2023-03-22T11:38:36.449Z,24.76
2023-03-22T11:41:42.737Z,26.34
2023-03-22T11:44:15.832Z,27.21
2023-03-22T11:46:57.864Z,25.64
2023-03-22T11:49:50.220Z,26.48
2023-03-22T11:52:23.019Z,27.20
2023-03-22T11:54:51.784Z,28.17
2023-03-22T11:57:25.229Z,26.67
2023-03-22T12:00:02.048Z,26.78
2023-03-22T12:02:41.821Z,26.34
2023-03-22T12:05:23.206Z,26.06
2023-03-22T12:08:09.650Z,27.21
2023-03-22T12:10:44.057Z,26.94
2023-03-22T12:13:22.562Z,26.90
2023-03-22T12:15:55.831Z,26.89
2023-03-22T12:18:57.625Z,27.49
2023-03-22T12:21:24.529Z,27.69
2023-03-22T12:24:01.030Z,28.37
2023-03-22T12:26:30.928Z,28.26
2023-03-22T12:29:08.193Z,29.18
2023-03-22T12:31:45.856Z,28.88
2023-03-22T12:34:19.795Z,27.81
2023-03-22T12:36:51.658Z,30.27
2023-03-22T12:39:26.928Z,29.18
2023-03-22T12:41:57.947Z,30.59
2023-03-22T12:44:55.522Z,31.32
2023-03-22T12:47:43.504Z,31.57
2023-03-22T12:50:33.388Z,31.76
2023-03-22T12:53:02.445Z,33.78
2023-03-22T12:55:49.647Z,33.41
2023-03-22T12:58:22.923Z,31.96
2023-03-22T13:01:12.286Z,33.07
2023-03-22T13:03:52.568Z,32.99
2023-03-22T13:06:31.860Z,32.05
2023-03-22T13:09:08.830Z,33.92
2023-03-22T13:11:36.275Z,35.58
2023-03-22T13:14:03.295Z,34.65
2023-03-22T13:16:52.072Z,33.36
2023-03-22T13:19:36.406Z,33.77
2023-03-22T13:22:28.954Z,34.04
2023-03-22T13:25:12.589Z,35.39
2023-03-22T13:27:45.548Z,36.23
2023-03-22T13:30:20.362Z,34.94
2023-03-22T13:33:10.410Z,35.68
2023-03-22T13:36:23.853Z,32.28
2023-03-22T13:39:03.051Z,33.54
2023-03-22T13:41:33.056Z,33.48
2023-03-22T13:44:04.820Z,34.30
2023-03-22T13:46:36.308Z,35.86
2023-03-22T13:49:03.419Z,36.01
2023-03-22T13:51:32.695Z,35.10
2023-03-22T13:54:07.279Z,33.54
2023-03-22T13:57:00.964Z,31.78
2023-03-22T13:59:27.912Z,32.09
2023-03-22T14:02:04.909Z,31.50
2023-03-22T14:04:53.086Z,32.14
2023-03-22T14:07:22.766Z,33.40
2023-03-22T14:09:58.753Z,34.42
2023-03-22T14:12:44.565Z,35.25
2023-03-22T14:15:19.157Z,36.20
2023-03-22T14:17:56.945Z,35.18
2023-03-22T14:20:29.973Z,34.47
